createdAt,value
2019-02-16T00:02:11.117Z,102392.43
2019-02-16T00:05:15.173Z,102396.23
2019-02-16T00:08:19.244Z,102396.13
2019-02-16T00:11:23.280Z,102395.23
2019-02-16T00:14:27.336Z,102397.92
2019-02-16T00:17:31.375Z,102391.18
2019-02-16T00:20:35.431Z,102387.74
2019-02-16T00:23:39.475Z,102385.10
2019-02-16T00:26:43.528Z,102376.04
2019-02-16T00:29:47.585Z,102380.33
2019-02-16T00:32:51.622Z,102377.43
2019-02-16T00:35:55.682Z,102373.45
2019-02-16T00:38:59.720Z,102372.30
2019-02-16T00:42:03.782Z,102369.27
2019-02-16T00:45:07.991Z,102368.86
2019-02-16T00:48:12.051Z,102369.27
2019-02-16T00:51:16.112Z,102367.47
2019-02-16T00:54:20.140Z,102352.03
2019-02-16T00:57:24.200Z,102353.81
2019-02-16T01:00:28.236Z,102348.64
2019-02-16T01:03:32.295Z,102343.98
2019-02-16T01:06:36.359Z,102335.69
2019-02-16T01:09:40.392Z,102338.23
2019-02-16T01:12:44.447Z,102327.16
2019-02-16T01:15:48.484Z,102322.42
2019-02-16T01:18:52.546Z,102311.62
2019-02-16T01:21:56.577Z,102310.32
2019-02-16T01:25:00.662Z,102307.33
2019-02-16T01:28:04.695Z,102305.19
2019-02-16T01:31:08.733Z,102302.55
2019-02-16T01:34:12.794Z,102295.68
2019-02-16T01:37:16.828Z,102285.42
2019-02-16T01:40:20.897Z,102278.95
2019-02-16T01:43:24.979Z,102268.19
2019-02-16T01:46:29.015Z,102268.59
2019-02-16T01:49:33.071Z,102262.11
2019-02-16T01:52:37.105Z,102256.54
2019-02-16T01:55:41.165Z,102261.05
2019-02-16T01:58:45.230Z,102253.28
2019-02-16T02:01:49.266Z,102255.38
2019-02-16T02:04:53.330Z,102241.50
2019-02-16T02:07:57.364Z,102239.84
2019-02-16T02:11:01.424Z,102245.86
2019-02-16T02:14:05.460Z,102235.66
2019-02-16T02:17:09.517Z,102243.42
2019-02-16T02:20:13.576Z,102236.16
2019-02-16T02:23:17.611Z,102237.90
2019-02-16T02:26:21.668Z,102240.04
2019-02-16T02:29:25.706Z,102237.80
2019-02-16T02:32:29.762Z,102242.63
2019-02-16T02:35:33.797Z,102239.24
2019-02-16T02:38:37.853Z,102235.89
2019-02-16T02:41:41.909Z,102235.89
2019-02-16T02:44:46.011Z,102231.61
2019-02-16T02:47:50.071Z,102225.09
2019-02-16T02:50:54.105Z,102219.51
2019-02-16T02:53:58.173Z,102216.52
2019-02-16T02:57:02.221Z,102210.05
2019-02-16T03:00:08.699Z,102212.19
2019-02-16T03:03:12.748Z,102202.23
2019-02-16T03:06:16.786Z,102193.27
2019-02-16T03:09:20.853Z,102187.59
2019-02-16T03:12:24.880Z,102182.47
2019-02-16T03:15:28.942Z,102180.33
2019-02-16T03:18:33.000Z,102177.34
2019-02-16T03:21:37.037Z,102184.21
2019-02-16T03:24:41.363Z,102181.52
2019-02-16T03:27:48.657Z,102184.21
2019-02-16T03:31:12.707Z,102178.19
2019-02-16T03:34:20.424Z,102179.93
2019-02-16T03:37:59.059Z,102179.93
2019-02-16T03:41:04.212Z,102167.48
2019-02-16T03:44:08.314Z,102162.39
2019-02-16T03:47:12.372Z,102161.10
2019-02-16T03:50:16.434Z,102153.39
2019-02-16T03:53:20.467Z,102162.84
2019-02-16T03:56:24.520Z,102159.41
2019-02-16T03:59:28.556Z,102159.80
2019-02-16T04:02:32.622Z,102162.50
2019-02-16T04:05:36.686Z,102158.11
2019-02-16T04:08:40.725Z,102158.22
2019-02-16T04:11:44.782Z,102162.05
2019-02-16T04:14:48.826Z,102155.58
2019-02-16T04:17:52.882Z,102147.47
2019-02-16T04:20:56.942Z,102151.00
2019-02-16T04:24:01.003Z,102148.36
2019-02-16T04:27:05.033Z,102149.27
2019-02-16T04:30:09.069Z,102141.94
2019-02-16T04:33:13.131Z,102132.13
2019-02-16T04:36:17.185Z,102136.37
2019-02-16T04:39:21.230Z,102140.34
2019-02-16T04:42:25.281Z,102138.20
2019-02-16T04:45:29.320Z,102139.89
2019-02-16T04:48:33.375Z,102134.27
2019-02-16T04:51:37.500Z,102127.84
2019-02-16T04:54:41.538Z,102122.27
2019-02-16T04:57:45.593Z,102124.46
2019-02-16T05:00:49.629Z,102126.55
2019-02-16T05:03:53.691Z,102123.56
2019-02-16T05:06:57.726Z,102122.22
2019-02-16T05:10:01.806Z,102126.55
2019-02-16T05:13:05.845Z,102130.03
2019-02-16T05:16:09.880Z,102124.41
2019-02-16T05:19:13.942Z,102127.84
2019-02-16T05:22:17.978Z,102124.46
2019-02-16T05:25:22.033Z,102114.06
2019-02-16T05:28:26.101Z,102115.00
2019-02-16T05:31:30.162Z,102112.81
2019-02-16T05:34:34.204Z,102108.14
2019-02-16T05:37:38.233Z,102108.94
2019-02-16T05:40:42.291Z,102107.24
2019-02-16T05:43:46.324Z,102104.66
2019-02-16T05:46:50.383Z,102099.08
2019-02-16T05:49:54.453Z,102089.77
2019-02-16T05:52:58.491Z,102091.05
2019-02-16T05:56:02.549Z,102091.81
2019-02-16T05:59:08.154Z,102096.73
2019-02-16T06:02:12.323Z,102098.82
2019-02-16T06:05:16.388Z,102095.83
2019-02-16T06:08:20.421Z,102101.56
2019-02-16T06:11:24.476Z,102101.56
2019-02-16T06:14:28.516Z,102101.95
2019-02-16T06:17:32.568Z,102104.20
2019-02-16T06:20:36.604Z,102108.53
2019-02-16T06:23:40.672Z,102107.68
2019-02-16T06:26:44.744Z,102101.56
2019-02-16T06:29:48.781Z,102093.30
2019-02-16T06:32:52.841Z,102092.34
2019-02-16T06:35:58.518Z,102100.11
2019-02-16T06:39:02.810Z,102095.78
2019-02-16T06:42:06.808Z,102097.44
2019-02-16T06:45:10.846Z,102093.11
2019-02-16T06:48:14.906Z,102098.19
2019-02-16T06:51:18.949Z,102109.67
2019-02-16T06:54:23.011Z,102108.25
2019-02-16T06:57:28.621Z,102115.22
2019-02-16T07:00:32.681Z,102123.48
2019-02-16T07:03:36.737Z,102133.44
2019-02-16T07:06:40.883Z,102126.72
2019-02-16T07:09:44.979Z,102125.91
2019-02-16T07:12:49.014Z,102133.02
2019-02-16T07:16:10.909Z,102135.44
2019-02-16T07:19:22.641Z,102128.31
2019-02-16T07:22:26.678Z,102129.50
2019-02-16T07:25:30.737Z,102132.04
2019-02-16T07:28:34.773Z,102133.73
2019-02-16T07:31:38.829Z,102134.52
2019-02-16T07:34:42.891Z,102124.52
2019-02-16T07:37:46.950Z,102124.91
2019-02-16T07:40:50.989Z,102128.34
2019-02-16T07:43:56.667Z,102128.80
2019-02-16T07:47:17.449Z,102127.84
2019-02-16T07:50:25.838Z,102132.58
2019-02-16T07:53:31.753Z,102124.35
2019-02-16T07:56:40.071Z,102128.97
2019-02-16T08:00:00.853Z,102124.16
2019-02-16T08:03:21.802Z,102122.29
2019-02-16T08:06:42.733Z,102133.05
2019-02-16T08:10:03.474Z,102134.69
2019-02-16T08:13:12.043Z,102128.55
2019-02-16T08:16:23.552Z,102130.77
2019-02-16T08:19:41.412Z,102126.37
2019-02-16T08:22:49.676Z,102120.97
2019-02-16T08:25:55.376Z,102113.19
2019-02-16T08:29:03.937Z,102113.38
2019-02-16T08:32:26.025Z,102116.16
2019-02-16T08:35:31.724Z,102120.31
2019-02-16T08:38:37.403Z,102109.91
2019-02-16T08:41:43.104Z,102094.41
2019-02-16T08:44:48.779Z,102101.73
2019-02-16T08:48:12.565Z,102109.31
2019-02-16T08:51:34.413Z,102112.17
2019-02-16T08:54:52.170Z,102104.72
2019-02-16T08:58:00.391Z,102106.91
2019-02-16T09:01:11.581Z,102117.30
2019-02-16T09:04:29.265Z,102112.83
2019-02-16T09:07:34.956Z,102114.91
2019-02-16T09:10:56.930Z,102109.95
2019-02-16T09:14:02.629Z,102106.17
2019-02-16T09:17:13.923Z,102104.59
2019-02-16T09:20:25.331Z,102103.64
2019-02-16T09:23:39.551Z,102117.33
2019-02-16T09:26:45.225Z,102114.34
2019-02-16T09:29:50.920Z,102108.09
2019-02-16T09:32:56.622Z,102104.36
2019-02-16T09:36:02.293Z,102103.70
2019-02-16T09:39:07.990Z,102103.47
2019-02-16T09:42:25.648Z,102097.49
2019-02-16T09:45:33.998Z,102106.19
2019-02-16T09:48:42.392Z,102099.31
2019-02-16T09:51:50.982Z,102092.04
2019-02-16T09:54:56.691Z,102096.54
2019-02-16T09:58:11.135Z,102092.31
2019-02-16T10:01:22.551Z,102098.41
2019-02-16T10:04:30.914Z,102096.28
2019-02-16T10:07:36.591Z,102101.59
2019-02-16T10:10:42.294Z,102099.23
2019-02-16T10:13:50.686Z,102093.98
2019-02-16T10:16:56.387Z,102092.60
2019-02-16T10:20:07.836Z,102096.00
2019-02-16T10:23:13.516Z,102091.81
2019-02-16T10:26:19.214Z,102091.30
2019-02-16T10:29:27.934Z,102087.64
2019-02-16T10:32:51.673Z,102085.00
2019-02-16T10:35:57.375Z,102102.03
2019-02-16T10:39:03.052Z,102102.03
2019-02-16T10:42:11.485Z,102100.23
2019-02-16T10:45:17.185Z,102107.44
2019-02-16T10:48:34.468Z,102105.81
2019-02-16T10:51:40.161Z,102109.86
2019-02-16T10:54:57.670Z,102111.52
2019-02-16T10:58:03.369Z,102105.69
2019-02-16T11:01:25.299Z,102102.44
2019-02-16T11:04:40.084Z,102109.25
2019-02-16T11:07:51.774Z,102087.17
2019-02-16T11:11:06.415Z,102108.56
2019-02-16T11:14:12.098Z,102100.84
2019-02-16T11:17:26.822Z,102102.13
2019-02-16T11:20:35.421Z,102106.09
2019-02-16T11:23:55.874Z,102100.11
2019-02-16T11:27:13.534Z,102108.91
2019-02-16T11:30:24.927Z,102107.49
2019-02-16T11:33:39.368Z,102104.38
2019-02-16T11:36:57.330Z,102095.70
2019-02-16T11:40:03.015Z,102090.95
2019-02-16T11:43:11.468Z,102101.16
2019-02-16T11:46:17.132Z,102096.70
2019-02-16T11:49:31.607Z,102087.09
2019-02-16T11:52:37.305Z,102085.64
2019-02-16T11:55:48.785Z,102077.20
2019-02-16T11:58:57.303Z,102074.45
2019-02-16T12:02:03.000Z,102075.03
2019-02-16T12:05:08.676Z,102074.26
2019-02-16T12:08:29.674Z,102081.52
2019-02-16T12:11:41.361Z,102072.44
2019-02-16T12:14:53.005Z,102074.03
2019-02-16T12:17:58.706Z,102070.91
2019-02-16T12:21:06.934Z,102072.54
2019-02-16T12:24:12.628Z,102069.03
2019-02-16T12:27:24.585Z,102065.46
2019-02-16T12:30:36.297Z,102064.91
2019-02-16T12:34:06.008Z,102056.73
2019-02-16T12:37:11.690Z,102058.48
2019-02-16T12:40:26.715Z,102055.82
2019-02-16T12:43:41.380Z,102060.63
2019-02-16T12:46:47.058Z,102052.84
2019-02-16T12:50:07.531Z,102052.31
2019-02-16T12:53:13.225Z,102047.64
2019-02-16T12:56:21.887Z,102039.50
2019-02-16T12:59:45.864Z,102037.26
2019-02-16T13:02:54.118Z,102029.02
2019-02-16T13:06:08.980Z,102034.66
2019-02-16T13:09:14.682Z,102038.20
2019-02-16T13:12:26.228Z,102026.13
2019-02-16T13:15:40.748Z,102023.53
2019-02-16T13:18:46.446Z,102023.92
2019-02-16T13:21:52.127Z,102021.33
2019-02-16T13:25:00.862Z,102028.17
2019-02-16T13:28:09.535Z,101998.59
2019-02-16T13:31:31.399Z,102024.28
2019-02-16T13:34:46.306Z,102022.14
2019-02-16T13:37:51.989Z,102024.28
2019-02-16T13:41:12.738Z,102017.20
2019-02-16T13:44:23.980Z,102013.45
2019-02-16T13:47:32.537Z,102019.32
2019-02-16T13:50:41.173Z,102011.75
2019-02-16T13:54:02.828Z,102018.75
2019-02-16T13:57:08.531Z,102012.53
2019-02-16T14:00:14.238Z,102003.31
2019-02-16T14:03:25.788Z,102003.84
2019-02-16T14:06:47.878Z,102009.21
2019-02-16T14:09:53.561Z,102004.69
2019-02-16T14:13:15.406Z,102002.47
2019-02-16T14:16:21.110Z,102000.13
2019-02-16T14:19:25.165Z,101999.20
2019-02-16T14:22:29.209Z,102003.70
2019-02-16T14:25:43.640Z,101993.16
2019-02-16T14:28:43.564Z,101994.84
2019-02-16T14:31:47.624Z,101991.69
2019-02-16T14:34:51.666Z,101997.34
2019-02-16T14:38:15.419Z,101991.86
2019-02-16T14:41:19.482Z,101990.70
2019-02-16T14:44:23.525Z,101998.81
2019-02-16T14:47:27.582Z,101993.83
2019-02-16T14:50:31.624Z,101990.63
2019-02-16T14:53:35.682Z,101991.55
2019-02-16T14:56:39.743Z,101999.02
2019-02-16T14:59:43.779Z,102002.78
2019-02-16T15:02:47.842Z,101996.28
2019-02-16T15:05:51.879Z,102005.76
2019-02-16T15:08:55.938Z,102003.09
2019-02-16T15:11:59.996Z,102009.66
2019-02-16T15:15:04.877Z,102006.42
2019-02-16T15:18:08.937Z,102009.80
2019-02-16T15:21:12.969Z,102007.66
2019-02-16T15:24:17.028Z,102011.03
2019-02-16T15:27:21.091Z,102011.34
2019-02-16T15:30:25.133Z,102005.91
2019-02-16T15:33:29.198Z,102003.55
2019-02-16T15:36:33.232Z,102002.31
2019-02-16T15:39:37.293Z,101998.49
2019-02-16T15:42:41.356Z,102000.17
2019-02-16T15:45:45.397Z,101999.40
2019-02-16T15:48:49.459Z,102007.00
2019-02-16T15:51:53.598Z,102004.16
2019-02-16T15:54:57.636Z,102007.06
2019-02-16T15:58:01.709Z,101998.57
2019-02-16T16:01:05.793Z,102002.92
2019-02-16T16:04:09.812Z,102009.28
2019-02-16T16:07:15.489Z,102012.41
2019-02-16T16:10:33.214Z,102011.56
2019-02-16T16:13:41.398Z,102008.97
2019-02-16T16:17:02.156Z,102009.14
2019-02-16T16:20:10.367Z,102018.31
2019-02-16T16:23:19.069Z,102020.59
2019-02-16T16:26:40.990Z,102019.30
2019-02-16T16:29:58.792Z,102029.38
2019-02-16T16:33:10.689Z,102030.39
2019-02-16T16:36:22.472Z,102029.83
2019-02-16T16:39:31.129Z,102031.69
2019-02-16T16:42:53.030Z,102037.09
2019-02-16T16:46:01.491Z,102039.10
2019-02-16T16:49:10.162Z,102039.55
2019-02-16T16:52:15.880Z,102043.21
2019-02-16T16:55:21.533Z,102049.81
2019-02-16T16:58:39.394Z,102049.95
2019-02-16T17:01:51.063Z,102048.48
2019-02-16T17:05:05.524Z,102052.10
2019-02-16T17:08:13.893Z,102049.42
2019-02-16T17:11:31.691Z,102056.77
2019-02-16T17:14:37.390Z,102058.88
2019-02-16T17:17:49.004Z,102058.07
2019-02-16T17:21:03.648Z,102055.83
2019-02-16T17:24:21.409Z,102069.21
2019-02-16T17:27:27.089Z,102071.06
2019-02-16T17:30:47.795Z,102065.77
2019-02-16T17:33:55.907Z,102074.19
2019-02-16T17:37:01.585Z,102079.78
2019-02-16T17:40:08.621Z,102081.22
2019-02-16T17:43:29.380Z,102079.22
2019-02-16T17:46:46.684Z,102086.11
2019-02-16T17:49:55.098Z,102080.69
2019-02-16T17:53:09.789Z,102074.41
2019-02-16T17:56:21.307Z,102080.23
2019-02-16T17:59:27.020Z,102079.99
2019-02-16T18:02:32.694Z,102081.50
2019-02-16T18:05:41.349Z,102077.33
2019-02-16T18:08:47.029Z,102073.95
2019-02-16T18:11:55.654Z,102083.69
2019-02-16T18:15:16.346Z,102084.42
2019-02-16T18:18:24.506Z,102090.92
2019-02-16T18:21:32.954Z,102089.33
2019-02-16T18:24:44.639Z,102081.99
2019-02-16T18:27:52.750Z,102087.72
2019-02-16T18:30:58.452Z,102093.76
2019-02-16T18:34:06.797Z,102104.09
2019-02-16T18:37:27.242Z,102103.31
2019-02-16T18:40:32.917Z,102105.00
2019-02-16T18:43:56.875Z,102097.34
2019-02-16T18:47:02.573Z,102100.47
2019-02-16T18:50:08.276Z,102108.27
2019-02-16T18:53:16.786Z,102105.77
2019-02-16T18:56:37.462Z,102107.80
2019-02-16T18:59:46.123Z,102103.69
2019-02-16T19:02:51.826Z,102103.76
2019-02-16T19:06:03.187Z,102103.51
2019-02-16T19:09:14.601Z,102094.27
2019-02-16T19:12:26.257Z,102102.77
2019-02-16T19:15:34.639Z,102096.86
2019-02-16T19:18:43.253Z,102087.91
2019-02-16T19:21:54.621Z,102089.20
2019-02-16T19:25:11.952Z,102094.11
2019-02-16T19:28:29.918Z,102097.37
2019-02-16T19:31:35.607Z,102097.89
2019-02-16T19:34:41.301Z,102096.37
2019-02-16T19:37:49.742Z,102100.78
2019-02-16T19:40:55.501Z,102095.59
2019-02-16T19:44:03.978Z,102090.53
2019-02-16T19:47:09.652Z,102097.97
2019-02-16T19:50:21.278Z,102097.13
2019-02-16T19:53:32.937Z,102088.88
2019-02-16T19:56:38.637Z,102088.16
2019-02-16T19:59:56.615Z,102091.74
2019-02-16T20:03:08.305Z,102090.96
2019-02-16T20:06:26.221Z,102086.78
2019-02-16T20:09:41.043Z,102090.13
2019-02-16T20:12:58.678Z,102086.78
2019-02-16T20:16:10.333Z,102089.95
2019-02-16T20:19:21.698Z,102085.64
2019-02-16T20:22:43.470Z,102076.17
2019-02-16T20:25:51.860Z,102076.17
2019-02-16T20:29:13.772Z,102088.77
2019-02-16T20:32:35.832Z,102086.84
2019-02-16T20:35:41.534Z,102091.52
2019-02-16T20:38:47.208Z,102087.37
2019-02-16T20:41:52.909Z,102093.47
2019-02-16T20:44:58.586Z,102096.84
2019-02-16T20:48:04.289Z,102089.58
2019-02-16T20:51:26.025Z,102091.49
2019-02-16T20:54:31.700Z,102097.92
2019-02-16T20:57:49.445Z,102097.20
2019-02-16T21:00:55.140Z,102100.64
2019-02-16T21:04:06.627Z,102093.95
2019-02-16T21:07:12.323Z,102096.48
2019-02-16T21:10:18.036Z,102095.73
2019-02-16T21:13:26.395Z,102101.39
2019-02-16T21:16:32.094Z,102098.34
2019-02-16T21:19:37.769Z,102101.06
2019-02-16T21:22:49.285Z,102105.02
2019-02-16T21:26:00.725Z,102101.19
2019-02-16T21:29:12.808Z,102094.70
2019-02-16T21:32:30.605Z,102100.05
2019-02-16T21:35:45.222Z,102105.53
2019-02-16T21:38:51.487Z,102104.91
2019-02-16T21:42:15.698Z,102096.80
2019-02-16T21:45:21.374Z,102093.42
2019-02-16T21:48:27.075Z,102093.03
2019-02-16T21:51:32.750Z,102095.63
2019-02-16T21:54:47.650Z,102097.09
2019-02-16T21:57:53.350Z,102090.53
2019-02-16T22:00:59.028Z,102093.19
2019-02-16T22:04:10.651Z,102097.48
2019-02-16T22:07:25.090Z,102093.70
2019-02-16T22:10:42.573Z,102096.82
2019-02-16T22:13:46.636Z,102099.35
2019-02-16T22:16:50.674Z,102100.72
2019-02-16T22:19:54.728Z,102100.33
2019-02-16T22:22:58.769Z,102102.16
2019-02-16T22:26:02.820Z,102102.62
2019-02-16T22:29:06.882Z,102105.57
2019-02-16T22:32:10.917Z,102109.56
2019-02-16T22:35:14.976Z,102102.16
2019-02-16T22:38:19.037Z,102111.61
2019-02-16T22:41:23.071Z,102111.70
2019-02-16T22:44:27.128Z,102104.37
2019-02-16T22:47:31.164Z,102101.38
2019-02-16T22:50:35.220Z,102101.38
2019-02-16T22:53:39.276Z,102108.39
2019-02-16T22:56:43.317Z,102108.78
2019-02-16T22:59:47.375Z,102108.78
2019-02-16T23:02:51.414Z,102112.47
2019-02-16T23:05:55.472Z,102101.73
2019-02-16T23:08:59.532Z,102106.38
2019-02-16T23:12:03.847Z,102104.63
2019-02-16T23:15:10.237Z,102112.86
2019-02-16T23:18:14.273Z,102113.41
2019-02-16T23:21:18.331Z,102112.95
2019-02-16T23:24:22.388Z,102106.07
2019-02-16T23:27:26.424Z,102110.88
2019-02-16T23:30:30.485Z,102106.65
2019-02-16T23:33:34.531Z,102104.17
2019-02-16T23:36:38.576Z,102106.71
2019-02-16T23:39:42.607Z,102108.01
2019-02-16T23:42:46.665Z,102101.97
2019-02-16T23:45:50.732Z,102103.72
2019-02-16T23:48:54.768Z,102100.28
2019-02-16T23:51:58.827Z,102089.06
2019-02-16T23:55:03.156Z,102095.48
2019-02-16T23:58:07.196Z,102092.20
